createdAt,value
2018-03-27T00:01:45.983Z,79.03
2018-03-27T00:04:14.867Z,74.43
2018-03-27T00:06:43.999Z,68.17
2018-03-27T00:09:14.593Z,81.27
2018-03-27T00:11:43.553Z,79.73
2018-03-27T00:14:12.595Z,76.53
2018-03-27T00:16:41.803Z,78.87
2018-03-27T00:19:11.139Z,95.37
2018-03-27T00:21:42.826Z,92.80
2018-03-27T00:24:12.570Z,78.20
2018-03-27T00:26:50.277Z,81.63
2018-03-27T00:29:30.800Z,87.93
2018-03-27T00:32:11.243Z,92.63
2018-03-27T00:34:51.338Z,86.93
2018-03-27T00:37:31.637Z,84.27
2018-03-27T00:40:12.397Z,97.73
2018-03-27T00:42:41.761Z,102.23
2018-03-27T00:45:11.289Z,91.97
2018-03-27T00:47:40.582Z,125.80
2018-03-27T00:50:09.644Z,113.60
2018-03-27T00:52:38.592Z,101.13
2018-03-27T00:55:07.821Z,84.57
2018-03-27T00:57:36.830Z,89.80
2018-03-27T01:00:06.936Z,90.93
2018-03-27T01:02:36.243Z,83.53
2018-03-27T01:05:09.587Z,80.83
2018-03-27T01:07:38.633Z,88.83
2018-03-27T01:10:07.858Z,83.00
2018-03-27T01:12:36.809Z,82.70
2018-03-27T01:15:05.947Z,91.17
2018-03-27T01:17:37.066Z,83.57
2018-03-27T01:20:07.007Z,73.23
2018-03-27T01:22:36.045Z,83.93
2018-03-27T01:25:05.341Z,83.80
2018-03-27T01:27:34.551Z,108.40
2018-03-27T01:30:04.720Z,91.67
2018-03-27T01:32:34.030Z,77.03
2018-03-27T01:35:03.232Z,87.77
2018-03-27T01:37:32.155Z,82.70
2018-03-27T01:40:03.734Z,85.17
2018-03-27T01:42:32.677Z,87.67
2018-03-27T01:45:02.348Z,86.73
2018-03-27T01:47:31.544Z,92.93
2018-03-27T01:50:00.480Z,75.43
2018-03-27T01:52:29.438Z,93.67
2018-03-27T01:54:58.334Z,92.80
2018-03-27T01:57:27.270Z,89.17
2018-03-27T01:59:56.519Z,90.47
2018-03-27T02:02:25.507Z,88.20
2018-03-27T02:04:54.578Z,105.80
2018-03-27T02:07:23.838Z,88.10
2018-03-27T02:09:52.808Z,91.40
2018-03-27T02:12:26.855Z,87.20
2018-03-27T02:15:01.607Z,90.50
2018-03-27T02:17:35.954Z,81.83
2018-03-27T02:20:11.696Z,89.73
2018-03-27T02:22:40.932Z,94.03
2018-03-27T02:25:09.968Z,90.63
2018-03-27T02:27:39.260Z,92.63
2018-03-27T02:30:08.214Z,97.80
2018-03-27T02:32:37.223Z,89.60
2018-03-27T02:35:06.459Z,103.23
2018-03-27T02:37:35.383Z,95.13
2018-03-27T02:40:05.673Z,95.20
2018-03-27T02:42:35.590Z,89.43
2018-03-27T02:45:05.246Z,97.73
2018-03-27T02:47:34.297Z,88.90
2018-03-27T02:50:04.729Z,82.40
2018-03-27T02:52:33.706Z,84.30
2018-03-27T02:55:03.083Z,74.40
2018-03-27T02:57:33.063Z,79.40
2018-03-27T03:00:02.842Z,79.57
2018-03-27T03:02:31.838Z,70.27
2018-03-27T03:05:01.451Z,76.80
2018-03-27T03:07:30.782Z,80.27
2018-03-27T03:09:59.832Z,80.60
2018-03-27T03:12:29.156Z,70.77
2018-03-27T03:14:58.111Z,67.90
2018-03-27T03:17:27.086Z,54.17
2018-03-27T03:19:56.002Z,57.97
2018-03-27T03:22:24.895Z,55.23
2018-03-27T03:24:54.206Z,57.20
2018-03-27T03:27:23.175Z,60.63
2018-03-27T03:29:52.138Z,64.43
2018-03-27T03:32:21.511Z,48.70
2018-03-27T03:34:50.506Z,62.73
2018-03-27T03:37:19.501Z,58.90
2018-03-27T03:39:48.815Z,58.00
2018-03-27T03:42:17.879Z,65.17
2018-03-27T03:44:46.902Z,65.10
2018-03-27T03:47:15.892Z,61.23
2018-03-27T03:49:44.892Z,57.17
2018-03-27T03:52:14.337Z,72.70
2018-03-27T03:54:43.630Z,75.40
2018-03-27T03:57:12.787Z,73.03
2018-03-27T03:59:41.639Z,79.23
2018-03-27T04:02:10.806Z,86.20
2018-03-27T04:04:39.760Z,76.27
2018-03-27T04:07:09.006Z,71.87
2018-03-27T04:09:38.364Z,78.20
2018-03-27T04:12:07.384Z,82.30
2018-03-27T04:14:36.654Z,80.70
2018-03-27T04:17:05.633Z,81.00
2018-03-27T04:19:34.621Z,90.30
2018-03-27T04:22:06.196Z,83.20
2018-03-27T04:24:35.786Z,87.00
2018-03-27T04:27:05.794Z,85.00
2018-03-27T04:29:34.757Z,90.07
2018-03-27T04:32:04.825Z,98.57
2018-03-27T04:34:34.124Z,87.90
2018-03-27T04:37:03.938Z,99.47
2018-03-27T04:39:32.887Z,104.03
2018-03-27T04:42:03.009Z,104.20
2018-03-27T04:44:31.966Z,99.67
2018-03-27T04:47:00.981Z,101.37
2018-03-27T04:49:30.373Z,103.00
2018-03-27T04:51:59.328Z,117.23
2018-03-27T04:54:28.233Z,99.27
2018-03-27T04:56:57.460Z,110.23
2018-03-27T04:59:26.778Z,118.70
2018-03-27T05:01:55.844Z,108.30
2018-03-27T05:04:25.160Z,113.70
2018-03-27T05:06:54.153Z,104.47
2018-03-27T05:09:23.139Z,107.20
2018-03-27T05:11:52.174Z,108.67
2018-03-27T05:14:21.172Z,97.87
2018-03-27T05:16:50.488Z,101.80
2018-03-27T05:19:19.374Z,108.27
2018-03-27T05:21:48.380Z,98.00
2018-03-27T05:24:17.612Z,88.57
2018-03-27T05:26:46.550Z,84.20
2018-03-27T05:29:15.829Z,93.90
2018-03-27T05:31:45.116Z,82.37
2018-03-27T05:34:14.109Z,85.00
2018-03-27T05:36:43.073Z,89.73
2018-03-27T05:39:12.499Z,91.47
2018-03-27T05:41:41.500Z,93.93
2018-03-27T05:44:10.580Z,92.97
2018-03-27T05:46:39.776Z,97.73
2018-03-27T05:49:08.740Z,88.40
2018-03-27T05:51:37.610Z,97.27
2018-03-27T05:54:06.590Z,94.87
2018-03-27T05:56:35.582Z,106.27
2018-03-27T05:59:05.849Z,93.80
2018-03-27T06:01:34.752Z,106.03
2018-03-27T06:04:04.589Z,97.87
2018-03-27T06:06:33.922Z,98.00
2018-03-27T06:09:03.141Z,102.93
2018-03-27T06:11:32.167Z,95.23
2018-03-27T06:14:01.440Z,107.53
2018-03-27T06:16:30.490Z,101.63
2018-03-27T06:18:59.567Z,98.27
2018-03-27T06:21:28.892Z,97.60
2018-03-27T06:23:58.046Z,100.60
2018-03-27T06:26:27.051Z,106.87
2018-03-27T06:28:56.299Z,112.57
2018-03-27T06:31:25.384Z,107.70
2018-03-27T06:33:54.338Z,100.43
2018-03-27T06:36:23.237Z,106.03
2018-03-27T06:38:52.228Z,105.70
2018-03-27T06:41:21.427Z,95.90
2018-03-27T06:43:50.416Z,101.57
2018-03-27T06:46:19.995Z,106.50
2018-03-27T06:48:49.209Z,108.07
2018-03-27T06:51:18.220Z,102.97
2018-03-27T06:53:47.165Z,102.30
2018-03-27T06:56:16.426Z,106.03
2018-03-27T06:58:45.411Z,106.57
2018-03-27T07:01:15.925Z,109.77
2018-03-27T07:03:44.904Z,114.27
2018-03-27T07:06:14.449Z,115.37
2018-03-27T07:08:43.475Z,115.17
2018-03-27T07:11:12.700Z,102.93
2018-03-27T07:13:41.663Z,100.93
2018-03-27T07:16:10.748Z,103.50
2018-03-27T07:18:39.746Z,105.77
2018-03-27T07:21:08.686Z,97.97
2018-03-27T07:23:37.979Z,109.47
2018-03-27T07:26:06.949Z,104.40
2018-03-27T07:31:35.859Z,98.60
2018-03-27T07:34:05.949Z,94.57
2018-03-27T07:36:34.906Z,99.57
2018-03-27T07:39:04.903Z,105.90
2018-03-27T07:41:33.887Z,93.70
2018-03-27T07:44:03.302Z,97.73
2018-03-27T07:46:32.263Z,95.90
2018-03-27T07:49:02.120Z,93.37
2018-03-27T07:51:31.790Z,91.43
2018-03-27T07:54:01.035Z,83.40
2018-03-27T07:56:30.187Z,84.70
2018-03-27T07:58:59.337Z,85.93
2018-03-27T08:01:28.422Z,81.17
2018-03-27T08:03:57.375Z,85.53
2018-03-27T08:06:26.575Z,84.77
2018-03-27T08:08:55.489Z,82.53
2018-03-27T08:11:24.337Z,82.30
2018-03-27T08:13:53.663Z,84.73
2018-03-27T08:16:22.611Z,83.77
2018-03-27T08:18:52.130Z,79.67
2018-03-27T08:21:21.384Z,83.17
2018-03-27T08:23:50.974Z,77.93
2018-03-27T08:26:26.411Z,85.90
2018-03-27T08:28:55.472Z,83.10
2018-03-27T08:31:24.488Z,92.80
2018-03-27T08:33:53.807Z,84.43
2018-03-27T08:36:22.971Z,85.67
2018-03-27T08:38:51.918Z,77.33
2018-03-27T08:41:21.741Z,76.60
2018-03-27T08:43:50.888Z,81.43
2018-03-27T08:46:20.038Z,65.30
2018-03-27T08:48:49.479Z,52.77
2018-03-27T08:51:18.469Z,63.90
2018-03-27T08:53:47.412Z,47.63
2018-03-27T08:56:17.081Z,54.60
2018-03-27T08:58:46.147Z,50.13
2018-03-27T09:01:16.011Z,61.97
2018-03-27T09:03:45.293Z,61.17
2018-03-27T09:06:14.291Z,51.40
2018-03-27T09:08:43.941Z,50.13
2018-03-27T09:11:12.898Z,51.57
2018-03-27T09:13:41.867Z,50.60
2018-03-27T09:16:11.336Z,52.80
2018-03-27T09:18:40.328Z,51.90
2018-03-27T09:21:09.275Z,52.27
2018-03-27T09:23:38.817Z,51.90
2018-03-27T09:26:07.814Z,51.53
2018-03-27T09:28:36.871Z,40.60
2018-03-27T09:31:06.213Z,46.57
2018-03-27T09:33:35.275Z,46.03
2018-03-27T09:36:05.350Z,42.23
2018-03-27T09:38:34.621Z,46.80
2018-03-27T09:41:04.536Z,40.50
2018-03-27T09:43:33.451Z,40.23
2018-03-27T09:46:04.620Z,41.03
2018-03-27T09:48:35.802Z,51.47
2018-03-27T09:51:06.035Z,41.63
2018-03-27T09:53:35.138Z,46.23
2018-03-27T09:56:05.505Z,44.43
2018-03-27T09:58:34.812Z,47.87
2018-03-27T10:01:08.016Z,48.67
2018-03-27T10:03:36.941Z,49.23
2018-03-27T10:06:06.583Z,44.63
2018-03-27T10:08:35.563Z,41.93
2018-03-27T10:11:04.719Z,44.30
2018-03-27T10:13:34.071Z,38.13
2018-03-27T10:16:04.881Z,38.90
2018-03-27T10:18:34.310Z,40.53
2018-03-27T10:21:04.759Z,40.93
2018-03-27T10:23:33.746Z,43.27
2018-03-27T10:26:03.497Z,42.80
2018-03-27T10:28:32.658Z,40.83
2018-03-27T10:31:02.681Z,46.17
2018-03-27T10:33:32.766Z,41.87
2018-03-27T10:36:03.936Z,35.30
2018-03-27T10:38:33.145Z,31.60
2018-03-27T10:41:04.665Z,31.53
2018-03-27T10:43:33.643Z,32.73
2018-03-27T10:46:03.782Z,36.07
2018-03-27T10:48:34.135Z,48.10
2018-03-27T10:51:03.681Z,47.07
2018-03-27T10:53:32.803Z,45.17
2018-03-27T10:56:02.955Z,45.20
2018-03-27T10:58:31.836Z,53.93
2018-03-27T11:01:01.010Z,52.10
2018-03-27T11:03:30.272Z,60.30
2018-03-27T11:05:59.195Z,44.33
2018-03-27T11:08:28.259Z,52.87
2018-03-27T11:10:57.647Z,50.30
2018-03-27T11:13:26.588Z,44.20
2018-03-27T11:15:55.643Z,46.17
2018-03-27T11:18:24.638Z,42.90
2018-03-27T11:20:53.816Z,45.00
2018-03-27T11:23:23.165Z,47.00
2018-03-27T11:25:52.207Z,47.23
2018-03-27T11:28:21.224Z,46.30
2018-03-27T11:30:50.702Z,55.60
2018-03-27T11:33:19.711Z,48.17
2018-03-27T11:35:48.791Z,47.37
2018-03-27T11:38:18.120Z,56.40
2018-03-27T11:40:47.015Z,53.60
2018-03-27T11:43:16.011Z,57.00
2018-03-27T11:45:45.208Z,48.10
2018-03-27T11:48:14.300Z,53.83
2018-03-27T11:50:43.280Z,48.40
2018-03-27T11:53:13.205Z,42.57
2018-03-27T11:55:42.361Z,50.10
2018-03-27T11:58:14.073Z,43.90
2018-03-27T12:00:44.177Z,44.03
2018-03-27T12:03:14.531Z,47.60
2018-03-27T12:05:44.567Z,41.70
2018-03-27T12:08:14.099Z,41.33
2018-03-27T12:10:43.199Z,40.00
2018-03-27T12:13:12.833Z,41.93
2018-03-27T12:15:41.805Z,38.90
2018-03-27T12:18:11.089Z,37.80
2018-03-27T12:20:40.913Z,39.23
2018-03-27T12:23:09.954Z,33.63
2018-03-27T12:28:03.851Z,37.23
2018-03-27T12:30:33.365Z,36.73
2018-03-27T12:33:04.102Z,33.83
2018-03-27T12:35:33.619Z,32.37
2018-03-27T12:38:03.403Z,31.10
2018-03-27T12:40:32.463Z,30.77
2018-03-27T12:43:04.336Z,28.70
2018-03-27T12:45:33.278Z,35.07
2018-03-27T12:48:04.421Z,29.10
2018-03-27T12:50:33.696Z,28.43
2018-03-27T12:53:02.666Z,30.77
2018-03-27T12:55:32.314Z,32.70
2018-03-27T12:58:03.183Z,30.00
2018-03-27T13:00:32.626Z,29.23
2018-03-27T13:03:01.588Z,29.23
2018-03-27T13:05:32.394Z,32.30
2018-03-27T13:08:04.630Z,28.23
2018-03-27T13:10:35.047Z,33.50
2018-03-27T13:13:05.255Z,23.50
2018-03-27T13:15:34.560Z,27.93
2018-03-27T13:18:06.355Z,28.50
2018-03-27T13:20:35.274Z,31.87
2018-03-27T13:23:05.224Z,31.93
2018-03-27T13:25:37.013Z,27.30
2018-03-27T13:28:05.935Z,27.97
2018-03-27T13:30:35.541Z,33.30
2018-03-27T13:33:05.654Z,29.77
2018-03-27T13:35:34.537Z,26.43
2018-03-27T13:38:05.483Z,27.03
2018-03-27T13:40:34.700Z,30.77
2018-03-27T13:43:04.667Z,29.07
2018-03-27T13:45:33.579Z,27.90
2018-03-27T13:48:03.938Z,29.60
2018-03-27T13:50:36.448Z,25.00
2018-03-27T13:53:06.160Z,25.80
2018-03-27T13:55:35.408Z,27.93
2018-03-27T13:58:05.268Z,28.10
2018-03-27T14:00:34.452Z,27.43
2018-03-27T14:03:05.479Z,24.27
2018-03-27T14:05:34.803Z,27.60
2018-03-27T14:08:07.219Z,27.80
2018-03-27T14:10:36.517Z,29.60
2018-03-27T14:13:05.919Z,25.13
2018-03-27T14:15:34.848Z,27.73
2018-03-27T14:18:05.895Z,26.30
2018-03-27T14:20:34.846Z,24.23
2018-03-27T14:23:03.978Z,26.67
2018-03-27T14:25:33.561Z,24.97
2018-03-27T14:28:03.589Z,27.43
2018-03-27T14:30:32.478Z,27.53
2018-03-27T14:33:01.852Z,30.10
2018-03-27T14:35:30.897Z,27.90
2018-03-27T14:38:00.586Z,24.60
2018-03-27T14:40:29.738Z,23.43
2018-03-27T14:42:58.710Z,30.10
2018-03-27T14:45:27.660Z,33.20
2018-03-27T14:47:57.239Z,31.37
2018-03-27T14:50:26.294Z,37.50
2018-03-27T14:52:55.217Z,32.17
2018-03-27T14:55:24.288Z,29.83
2018-03-27T14:57:53.531Z,29.30
2018-03-27T15:00:23.042Z,31.83
2018-03-27T15:02:52.035Z,30.90
2018-03-27T15:05:21.298Z,33.10
2018-03-27T15:07:50.205Z,36.53
2018-03-27T15:10:19.204Z,35.50
2018-03-27T15:12:48.096Z,44.43
2018-03-27T15:15:16.963Z,37.43
2018-03-27T15:17:46.123Z,32.37
2018-03-27T15:20:15.025Z,38.07
2018-03-27T15:22:43.927Z,35.83
2018-03-27T15:25:13.088Z,37.53
2018-03-27T15:27:41.977Z,41.00
2018-03-27T15:30:10.972Z,34.27
2018-03-27T15:32:40.252Z,39.77
2018-03-27T15:35:09.384Z,35.23
2018-03-27T15:37:38.238Z,38.90
2018-03-27T15:40:07.195Z,35.50
2018-03-27T15:42:36.198Z,38.53
2018-03-27T15:45:05.353Z,36.97
2018-03-27T15:47:34.230Z,35.60
2018-03-27T15:50:05.228Z,39.80
2018-03-27T15:52:34.161Z,30.83
2018-03-27T15:55:04.522Z,31.70
2018-03-27T15:57:33.403Z,29.70
2018-03-27T16:00:05.299Z,32.77
2018-03-27T16:02:34.981Z,29.10
2018-03-27T16:05:05.945Z,69.67
2018-03-27T16:07:34.878Z,32.60
2018-03-27T16:10:05.059Z,29.17
2018-03-27T16:12:34.007Z,42.67
2018-03-27T16:15:03.551Z,30.70
2018-03-27T16:17:32.771Z,32.03
2018-03-27T16:20:02.564Z,35.27
2018-03-27T16:22:31.548Z,32.97
2018-03-27T16:25:00.859Z,33.53
2018-03-27T16:27:29.762Z,34.03
2018-03-27T16:29:58.625Z,36.10
2018-03-27T16:32:27.832Z,37.70
2018-03-27T16:34:56.746Z,39.23
2018-03-27T16:37:26.171Z,32.77
2018-03-27T16:39:55.373Z,39.43
2018-03-27T16:42:24.299Z,35.13
2018-03-27T16:44:53.249Z,41.57
2018-03-27T16:47:22.947Z,31.20
2018-03-27T16:49:51.866Z,36.20
2018-03-27T16:52:21.261Z,33.90
2018-03-27T16:54:50.494Z,39.93
2018-03-27T16:57:19.450Z,35.20
2018-03-27T16:59:48.376Z,38.40
2018-03-27T17:02:18.729Z,31.10
2018-03-27T17:04:47.825Z,33.20
2018-03-27T17:07:17.593Z,38.50
2018-03-27T17:09:48.079Z,35.23
2018-03-27T17:12:17.163Z,38.73
2018-03-27T17:14:46.086Z,39.00
2018-03-27T17:17:15.433Z,36.30
2018-03-27T17:19:44.467Z,43.27
2018-03-27T17:22:13.447Z,37.23
2018-03-27T17:24:42.667Z,94.10
2018-03-27T17:27:11.951Z,43.83
2018-03-27T17:29:40.870Z,38.23
2018-03-27T17:32:10.076Z,39.03
2018-03-27T17:34:38.978Z,41.60
2018-03-27T17:37:07.944Z,40.50
2018-03-27T17:39:37.190Z,49.40
2018-03-27T17:42:06.173Z,39.13
2018-03-27T17:44:35.077Z,36.40
2018-03-27T17:47:04.494Z,40.87
2018-03-27T17:49:33.424Z,43.53
2018-03-27T17:52:03.145Z,38.87
2018-03-27T17:54:32.383Z,38.00
2018-03-27T18:00:00.760Z,41.50
2018-03-27T18:02:29.730Z,49.53
2018-03-27T18:04:58.639Z,45.57
2018-03-27T18:07:27.860Z,41.50
2018-03-27T18:09:56.819Z,37.37
2018-03-27T18:12:25.758Z,38.30
2018-03-27T18:14:55.113Z,44.47
2018-03-27T18:17:24.216Z,36.97
2018-03-27T18:19:53.193Z,38.27
2018-03-27T18:22:22.596Z,39.17
2018-03-27T18:24:51.613Z,40.50
2018-03-27T18:27:20.657Z,41.83
2018-03-27T18:29:49.674Z,44.30
2018-03-27T18:32:18.985Z,43.83
2018-03-27T18:34:47.975Z,41.37
2018-03-27T18:37:17.250Z,43.27
2018-03-27T18:39:46.215Z,41.33
2018-03-27T18:42:15.152Z,44.10
2018-03-27T18:44:44.124Z,37.83
2018-03-27T18:47:13.258Z,38.93
2018-03-27T18:49:42.620Z,43.17
2018-03-27T18:54:51.626Z,40.80
2018-03-27T18:57:20.832Z,44.90
2018-03-27T18:59:50.217Z,46.33
2018-03-27T19:02:19.328Z,45.50
2018-03-27T19:04:48.437Z,43.73
2018-03-27T19:07:19.564Z,41.03
2018-03-27T19:09:48.470Z,43.50
2018-03-27T19:12:17.455Z,43.50
2018-03-27T19:14:46.849Z,39.30
2018-03-27T19:17:16.011Z,40.20
2018-03-27T19:19:44.976Z,48.33
2018-03-27T19:22:28.755Z,44.20
2018-03-27T19:24:58.017Z,35.50
2018-03-27T19:27:28.766Z,40.87
2018-03-27T19:29:57.776Z,48.40
2018-03-27T19:32:27.241Z,43.43
2018-03-27T19:34:56.229Z,49.63
2018-03-27T19:37:25.284Z,53.23
2018-03-27T19:39:54.254Z,46.60
2018-03-27T19:42:24.889Z,45.23
2018-03-27T19:44:53.877Z,43.80
2018-03-27T19:47:22.785Z,41.50
2018-03-27T19:49:51.987Z,38.90
2018-03-27T19:52:21.169Z,39.27
2018-03-27T19:54:50.145Z,33.33
2018-03-27T19:57:19.446Z,43.77
2018-03-27T19:59:48.455Z,36.70
2018-03-27T20:02:18.044Z,32.90
2018-03-27T20:04:47.281Z,33.43
2018-03-27T20:07:17.057Z,36.30
2018-03-27T20:09:45.981Z,35.43
2018-03-27T20:12:15.556Z,37.33
2018-03-27T20:14:44.483Z,34.60
2018-03-27T20:17:13.625Z,37.07
2018-03-27T20:19:42.994Z,34.60
2018-03-27T20:22:12.157Z,34.83
2018-03-27T20:24:41.097Z,34.80
2018-03-27T20:27:10.341Z,32.40
2018-03-27T20:29:39.285Z,41.73
2018-03-27T20:32:08.221Z,36.77
2018-03-27T20:34:37.465Z,30.83
2018-03-27T20:37:06.534Z,36.90
2018-03-27T20:39:36.167Z,36.33
2018-03-27T20:42:06.293Z,37.73
2018-03-27T20:44:35.263Z,38.83
2018-03-27T20:47:04.264Z,42.53
2018-03-27T20:49:33.636Z,42.80
2018-03-27T20:52:03.327Z,41.80
2018-03-27T20:54:32.396Z,37.50
2018-03-27T20:57:01.886Z,45.40
2018-03-27T20:59:31.295Z,37.47
2018-03-27T21:02:00.952Z,34.70
2018-03-27T21:04:30.926Z,36.43
2018-03-27T21:06:59.981Z,38.90
2018-03-27T21:09:28.913Z,39.10
2018-03-27T21:11:58.364Z,45.50
2018-03-27T21:14:27.309Z,35.23
2018-03-27T21:16:56.311Z,43.17
2018-03-27T21:19:25.720Z,42.70
2018-03-27T21:21:54.888Z,41.80
2018-03-27T21:24:23.970Z,38.27
2018-03-27T21:26:53.219Z,38.83
2018-03-27T21:29:22.232Z,38.77
2018-03-27T21:31:51.317Z,38.17
2018-03-27T21:34:20.936Z,39.10
2018-03-27T21:36:49.981Z,47.17
2018-03-27T21:39:19.033Z,40.47
2018-03-27T21:41:48.857Z,45.43
2018-03-27T21:44:17.989Z,45.40
2018-03-27T21:46:47.052Z,43.03
2018-03-27T21:49:16.281Z,44.43
2018-03-27T21:51:45.282Z,41.77
2018-03-27T21:54:14.293Z,44.13
2018-03-27T21:56:43.554Z,44.90
2018-03-27T22:01:39.733Z,47.27
2018-03-27T22:04:09.199Z,48.40
2018-03-27T22:06:38.157Z,47.37
2018-03-27T22:09:07.491Z,47.53
2018-03-27T22:11:36.841Z,51.63
2018-03-27T22:14:05.962Z,50.30
2018-03-27T22:16:35.542Z,50.40
2018-03-27T22:19:04.890Z,45.47
2018-03-27T22:21:34.111Z,46.07
2018-03-27T22:24:04.034Z,50.13
2018-03-27T22:26:32.930Z,53.80
2018-03-27T22:29:02.563Z,55.63
2018-03-27T22:31:32.522Z,49.20
2018-03-27T22:34:02.312Z,53.03
2018-03-27T22:37:33.863Z,48.47
2018-03-27T22:40:03.581Z,50.37
2018-03-27T22:42:33.340Z,54.57
2018-03-27T22:45:03.507Z,44.17
2018-03-27T22:47:32.510Z,36.73
2018-03-27T22:50:03.548Z,48.23
2018-03-27T22:52:32.674Z,42.40
2018-03-27T22:55:02.001Z,49.00
2018-03-27T22:57:31.573Z,47.33
2018-03-27T23:00:00.516Z,46.33
2018-03-27T23:02:29.476Z,41.17
2018-03-27T23:04:58.805Z,45.20
2018-03-27T23:07:27.723Z,53.97
2018-03-27T23:09:56.711Z,42.80
2018-03-27T23:12:25.649Z,43.93
2018-03-27T23:17:20.153Z,42.73
2018-03-27T23:19:49.516Z,42.07
2018-03-27T23:22:27.736Z,45.43
2018-03-27T23:24:57.203Z,46.87
2018-03-27T23:27:26.128Z,45.90
2018-03-27T23:29:55.052Z,44.57
2018-03-27T23:32:24.280Z,37.93
2018-03-27T23:34:53.274Z,50.23
2018-03-27T23:37:22.177Z,42.33
2018-03-27T23:39:51.467Z,41.37
2018-03-27T23:42:20.451Z,43.30
2018-03-27T23:44:49.318Z,39.73
2018-03-27T23:47:18.538Z,42.20
2018-03-27T23:49:47.502Z,48.30
2018-03-27T23:52:16.398Z,50.17
2018-03-27T23:54:45.313Z,46.83
2018-03-27T23:57:14.288Z,38.90
2018-03-27T23:59:43.641Z,39.80
